createdAt,value
2022-12-11T00:00:42.382Z,987.91
2022-12-11T00:01:42.411Z,987.92
2022-12-11T00:02:42.387Z,987.89
2022-12-11T00:03:42.328Z,987.93
2022-12-11T00:04:42.296Z,987.96
2022-12-11T00:05:42.270Z,987.97
2022-12-11T00:06:42.257Z,987.97
2022-12-11T00:07:42.360Z,987.99
2022-12-11T00:08:42.216Z,987.99
2022-12-11T00:09:42.192Z,988.01
2022-12-11T00:10:42.175Z,987.99
2022-12-11T00:11:42.149Z,988.00
2022-12-11T00:12:42.127Z,988.03
2022-12-11T00:13:42.101Z,988.04
2022-12-11T00:14:42.095Z,988.03
2022-12-11T00:15:42.055Z,988.01
2022-12-11T00:16:42.076Z,988.04
2022-12-11T00:17:42.017Z,988.03
2022-12-11T00:18:41.993Z,988.05
2022-12-11T00:19:41.971Z,988.09
2022-12-11T00:20:41.952Z,988.04
2022-12-11T00:21:41.931Z,988.04
2022-12-11T00:22:41.924Z,988.06
2022-12-11T00:23:41.885Z,988.07
2022-12-11T00:24:51.421Z,988.10
2022-12-11T13:46:06.890Z,986.78
2022-12-11T13:47:06.783Z,986.78
2022-12-11T13:49:13.808Z,986.84
2022-12-11T13:50:13.636Z,986.80
2022-12-11T13:52:18.365Z,986.83
2022-12-11T13:53:18.336Z,986.81
2022-12-11T13:55:23.844Z,986.85
2022-12-11T13:56:23.731Z,986.85
2022-12-11T14:37:16.096Z,987.00
2022-12-11T14:38:16.106Z,987.01
2022-12-11T14:40:20.866Z,987.01
2022-12-11T14:41:20.405Z,987.01
2022-12-11T14:43:26.111Z,987.03
2022-12-11T14:44:25.954Z,987.04
2022-12-11T14:45:25.835Z,987.02
2022-12-11T14:46:25.845Z,987.03
2022-12-11T14:47:25.903Z,987.03
2022-12-11T14:48:25.799Z,987.02
2022-12-11T14:49:26.061Z,987.05
2022-12-11T14:50:25.726Z,987.05
2022-12-11T14:51:25.706Z,987.05
2022-12-11T14:52:25.696Z,987.05
2022-12-11T14:53:25.659Z,987.07
2022-12-11T14:54:25.641Z,987.04
2022-12-11T14:55:25.616Z,987.07
2022-12-11T14:56:25.598Z,987.12
2022-12-11T14:57:25.575Z,987.11
2022-12-11T14:58:25.558Z,987.06
2022-12-11T14:59:30.094Z,987.03
2022-12-11T15:00:25.518Z,987.08
2022-12-11T15:01:25.543Z,987.09
2022-12-11T15:02:25.611Z,987.07
2022-12-11T15:03:25.454Z,987.08
2022-12-11T15:04:25.443Z,987.08
2022-12-11T15:05:25.587Z,987.06
2022-12-11T15:06:25.398Z,987.09
2022-12-11T15:07:25.375Z,987.12
2022-12-11T15:08:25.460Z,987.09
2022-12-11T15:09:25.338Z,987.09
2022-12-11T15:10:25.474Z,987.12
2022-12-11T15:11:25.298Z,987.09
2022-12-11T15:12:25.278Z,987.12
2022-12-11T15:13:25.267Z,987.10
2022-12-11T15:14:25.237Z,987.17
2022-12-11T15:15:25.224Z,987.11
2022-12-11T15:16:25.292Z,987.16
2022-12-11T15:17:25.174Z,987.18
2022-12-11T15:18:25.163Z,987.15
2022-12-11T15:19:25.136Z,987.17
2022-12-11T15:20:25.119Z,987.20
2022-12-11T15:21:25.113Z,987.19
2022-12-11T15:22:25.077Z,987.21
2022-12-11T15:23:25.055Z,987.19
2022-12-11T15:24:25.038Z,987.24
2022-12-11T15:25:25.015Z,987.24
2022-12-11T15:26:24.998Z,987.23
2022-12-11T15:27:24.982Z,987.21
2022-12-11T15:28:24.958Z,987.24
2022-12-11T15:29:24.941Z,987.21
2022-12-11T15:30:24.917Z,987.21
2022-12-11T15:31:24.898Z,987.19
2022-12-11T15:32:24.878Z,987.17
2022-12-11T15:33:27.438Z,987.18
2022-12-11T15:34:24.835Z,987.18
2022-12-11T15:35:24.819Z,987.16
2022-12-11T15:36:24.921Z,987.13
2022-12-11T15:37:24.796Z,987.14
2022-12-11T15:38:24.762Z,987.13
2022-12-11T15:39:24.742Z,987.16
2022-12-11T15:40:24.858Z,987.18
2022-12-11T15:41:24.709Z,987.20
2022-12-11T15:42:24.683Z,987.18
2022-12-11T15:43:24.653Z,987.22
2022-12-11T15:44:24.642Z,987.21
2022-12-11T15:45:24.615Z,987.23
2022-12-11T15:46:24.696Z,987.27
2022-12-11T15:47:24.577Z,987.25
2022-12-11T15:48:24.644Z,987.24
2022-12-11T15:49:24.572Z,987.27
2022-12-11T15:50:24.522Z,987.27
2022-12-11T15:51:24.495Z,987.29
2022-12-11T15:52:24.475Z,987.30
2022-12-11T15:53:24.458Z,987.30
2022-12-11T15:54:24.438Z,987.33
2022-12-11T15:55:24.420Z,987.33
2022-12-11T15:56:24.398Z,987.33
2022-12-11T15:57:24.382Z,987.31
2022-12-11T15:58:24.358Z,987.35
2022-12-11T15:59:24.332Z,987.29
2022-12-11T16:00:24.310Z,987.30
2022-12-11T16:01:24.306Z,987.36
2022-12-11T16:02:24.469Z,987.36
2022-12-11T16:03:24.256Z,987.35
2022-12-11T16:04:24.231Z,987.34
2022-12-11T16:05:24.213Z,987.33
2022-12-11T16:06:24.228Z,987.36
2022-12-11T16:07:24.171Z,987.36
2022-12-11T16:08:24.180Z,987.33
2022-12-11T16:09:24.132Z,987.37
2022-12-11T16:10:24.113Z,987.36
2022-12-11T16:11:24.091Z,987.40
2022-12-11T16:12:24.071Z,987.37
2022-12-11T16:13:24.051Z,987.40
2022-12-11T16:14:24.035Z,987.37
2022-12-11T16:15:24.598Z,987.34
2022-12-11T16:16:24.047Z,987.38
2022-12-11T16:17:23.974Z,987.36
2022-12-11T16:18:23.950Z,987.32
2022-12-11T16:19:23.929Z,987.35
2022-12-11T16:20:23.907Z,987.34
2022-12-11T16:21:23.888Z,987.35
2022-12-11T16:22:23.869Z,987.35
2022-12-11T16:23:23.852Z,987.35
2022-12-11T16:24:23.828Z,987.33
2022-12-11T16:25:23.814Z,987.35
2022-12-11T16:26:23.901Z,987.34
2022-12-11T16:27:23.772Z,987.34
2022-12-11T16:28:23.751Z,987.37
2022-12-11T16:29:23.728Z,987.36
2022-12-11T16:30:23.718Z,987.31
2022-12-11T16:31:33.642Z,987.32
2022-12-11T16:42:31.207Z,987.21
2022-12-11T16:58:03.850Z,987.09
2022-12-11T17:29:27.754Z,987.12
